Randolph, Alabama
Current Conditions -  °F | °C
As of 5:53 PM on Friday 31 Oct 2014 (Local Time) from KEET Reporting Station
Overcast Overcast  
Wind Chill: 13°   Ceiling: 8500
Heat Index: 13°   Visibility: 10mi
Dew Point: 10°   Wind: 8mph
Humidity: 83%   Direction: 300°WNW
Pressure: 29.99"   Gusts: NA
Location:  32.9°N, 86.91°W
Report Text: KEET 312253Z AUTO 30007KT 10SM SCT060 OVC085 13/10 A2999 RMK AO2 RAB06E37 SLP154 P0006 T01280100
Loading
Personal Weather Stations






























Interactive Weather Map
Tropical Storm Tracking
New forecast layout! Learn more

10-Day Weather Forecast

Advertisements
Track Severe Weather on mobile